Time,TemperatureF,DewpointF,PressureIn,WindDirection,WindDirectionDegrees,WindSpeedMPH,WindSpeedGustMPH,Humidity,HourlyPrecipIn,Conditions,Clouds,dailyrainin,SoftwareType,DateUTC
2013-02-23 00:09:00,39.9,30.2,29.83,West,270,0.0,-999.0,68,-99.99,,,0.00,Acu-Link.com,2013-02-23 06:09:00,
2013-02-23 00:24:00,39.6,30.3,29.82,West,270,0.0,-999.0,69,-99.99,,,0.00,Acu-Link.com,2013-02-23 06:24:00,
2013-02-23 00:39:00,39.0,29.7,29.82,West,270,0.0,-999.0,69,-99.99,,,0.00,Acu-Link.com,2013-02-23 06:39:00,
2013-02-23 00:55:00,38.8,29.5,29.81,West,270,0.0,-999.0,69,-99.99,,,0.00,Acu-Link.com,2013-02-23 06:55:00,
2013-02-23 01:10:00,38.5,30.3,29.81,West,270,0.0,-999.0,72,-99.99,,,0.00,Acu-Link.com,2013-02-23 07:10:00,
2013-02-23 01:25:00,37.9,29.4,29.81,West,270,0.0,-999.0,71,-99.99,,,0.00,Acu-Link.com,2013-02-23 07:25:00,
2013-02-23 01:41:00,37.6,29.1,29.81,West,270,0.0,-999.0,71,-99.99,,,0.00,Acu-Link.com,2013-02-23 07:41:00,
2013-02-23 01:56:00,37.4,28.9,29.81,West,270,0.0,-999.0,71,-99.99,,,0.00,Acu-Link.com,2013-02-23 07:56:00,
2013-02-23 02:11:00,37.2,28.7,29.80,West,270,0.0,-999.0,71,-99.99,,,0.00,Acu-Link.com,2013-02-23 08:11:00,
2013-02-23 02:27:00,37.0,28.5,29.79,West,270,0.0,-999.0,71,-99.99,,,0.00,Acu-Link.com,2013-02-23 08:27:00,
2013-02-23 02:42:00,36.7,28.2,29.78,West,270,0.0,-999.0,71,-99.99,,,0.00,Acu-Link.com,2013-02-23 08:42:00,
2013-02-23 02:57:00,36.5,27.7,29.79,West,270,0.0,-999.0,70,-99.99,,,0.00,Acu-Link.com,2013-02-23 08:57:00,
2013-02-23 03:20:00,36.3,28.5,29.78,West,270,0.0,-999.0,73,-99.99,,,0.00,Acu-Link.com,2013-02-23 09:20:00,
2013-02-23 03:35:00,36.3,27.8,29.77,West,270,0.0,-999.0,71,-99.99,,,0.00,Acu-Link.com,2013-02-23 09:35:00,
2013-02-23 03:50:00,36.7,27.9,29.76,West,270,0.0,-999.0,70,-99.99,,,0.00,Acu-Link.com,2013-02-23 09:50:00,
2013-02-23 04:06:00,36.7,27.9,29.76,West,270,0.0,-999.0,70,-99.99,,,0.00,Acu-Link.com,2013-02-23 10:06:00,
2013-02-23 04:21:00,36.7,27.5,29.76,West,270,0.0,-999.0,69,-99.99,,,0.00,Acu-Link.com,2013-02-23 10:21:00,
2013-02-23 04:36:00,36.5,27.3,29.77,West,270,0.0,-999.0,69,-99.99,,,0.00,Acu-Link.com,2013-02-23 10:36:00,
2013-02-23 04:51:00,36.5,27.7,29.77,West,270,0.0,-999.0,70,-99.99,,,0.00,Acu-Link.com,2013-02-23 10:51:00,
2013-02-23 05:06:00,36.1,28.3,29.77,West,270,0.0,-999.0,73,-99.99,,,0.00,Acu-Link.com,2013-02-23 11:06:00,
2013-02-23 05:21:00,35.8,28.0,29.77,West,270,0.0,-999.0,73,-99.99,,,0.00,Acu-Link.com,2013-02-23 11:21:00,
2013-02-23 05:37:00,36.0,27.9,29.78,West,270,0.0,-999.0,72,-99.99,,,0.00,Acu-Link.com,2013-02-23 11:37:00,
2013-02-23 05:52:00,36.0,27.5,29.79,West,270,0.0,-999.0,71,-99.99,,,0.00,Acu-Link.com,2013-02-23 11:52:00,
2013-02-23 06:07:00,35.4,26.9,29.79,West,270,0.0,-999.0,71,-99.99,,,0.00,Acu-Link.com,2013-02-23 12:07:00,
2013-02-23 06:22:00,35.1,27.3,29.80,West,270,0.0,-999.0,73,-99.99,,,0.00,Acu-Link.com,2013-02-23 12:22:00,
2013-02-23 06:38:00,34.7,27.6,29.80,West,270,0.0,-999.0,75,-99.99,,,0.00,Acu-Link.com,2013-02-23 12:38:00,
2013-02-23 06:53:00,34.5,27.4,29.80,West,270,0.0,-999.0,75,-99.99,,,0.00,Acu-Link.com,2013-02-23 12:53:00,
2013-02-23 07:08:00,34.3,26.9,29.80,West,270,0.0,-999.0,74,-99.99,,,0.00,Acu-Link.com,2013-02-23 13:08:00,
2013-02-23 07:23:00,34.2,27.4,29.80,West,270,0.0,-999.0,76,-99.99,,,0.00,Acu-Link.com,2013-02-23 13:23:00,
2013-02-23 07:38:00,34.0,27.6,29.80,West,270,0.0,-999.0,77,-99.99,,,0.00,Acu-Link.com,2013-02-23 13:38:00,
2013-02-23 07:54:00,34.0,27.2,29.81,West,270,0.0,-999.0,76,-99.99,,,0.00,Acu-Link.com,2013-02-23 13:54:00,
2013-02-23 08:09:00,34.5,26.8,29.82,West,270,0.0,-999.0,73,-99.99,,,0.00,Acu-Link.com,2013-02-23 14:09:00,
2013-02-23 08:24:00,35.2,26.4,29.83,West,270,0.0,-999.0,70,-99.99,,,0.00,Acu-Link.com,2013-02-23 14:24:00,
2013-02-23 08:39:00,36.1,26.6,29.83,West,270,0.0,-999.0,68,-99.99,,,0.00,Acu-Link.com,2013-02-23 14:39:00,
2013-02-23 08:55:00,36.7,26.4,29.83,West,270,0.0,-999.0,66,-99.99,,,0.00,Acu-Link.com,2013-02-23 14:55:00,
2013-02-23 09:10:00,37.4,26.4,29.83,West,270,0.0,-999.0,64,-99.99,,,0.00,Acu-Link.com,2013-02-23 15:10:00,
2013-02-23 09:25:00,38.3,26.8,29.84,West,270,0.0,-999.0,63,-99.99,,,0.00,Acu-Link.com,2013-02-23 15:25:00,
2013-02-23 09:40:00,39.4,27.1,29.83,West,270,0.0,-999.0,61,-99.99,,,0.00,Acu-Link.com,2013-02-23 15:40:00,
2013-02-23 09:56:00,40.3,26.7,29.83,West,270,0.0,-999.0,58,-99.99,,,0.00,Acu-Link.com,2013-02-23 15:56:00,
2013-02-23 10:11:00,41.5,27.4,29.84,West,270,2.7,-999.0,57,-99.99,,,0.00,Acu-Link.com,2013-02-23 16:11:00,
2013-02-23 10:26:00,42.6,28.4,29.84,West,270,2.2,-999.0,57,-99.99,,,0.00,Acu-Link.com,2013-02-23 16:26:00,
2013-02-23 10:41:00,43.3,29.1,29.84,West,270,0.0,-999.0,57,-99.99,,,0.00,Acu-Link.com,2013-02-23 16:41:00,
2013-02-23 10:56:00,44.1,29.4,29.84,West,270,2.2,-999.0,56,-99.99,,,0.00,Acu-Link.com,2013-02-23 16:56:00,
2013-02-23 11:11:00,45.1,28.5,29.83,West,270,0.0,-999.0,52,-99.99,,,0.00,Acu-Link.com,2013-02-23 17:11:00,
2013-02-23 11:27:00,45.9,28.8,29.83,West,270,1.7,-999.0,51,-99.99,,,0.00,Acu-Link.com,2013-02-23 17:27:00,
2013-02-23 11:42:00,46.8,29.2,29.83,West,270,2.2,-999.0,50,-99.99,,,0.00,Acu-Link.com,2013-02-23 17:42:00,
2013-02-23 11:57:00,47.3,28.6,29.81,West,270,0.0,-999.0,48,-99.99,,,0.00,Acu-Link.com,2013-02-23 17:57:00,
2013-02-23 12:13:00,48.0,28.7,29.81,West,270,0.0,-999.0,47,-99.99,,,0.00,Acu-Link.com,2013-02-23 18:13:00,
2013-02-23 12:28:00,48.7,29.4,29.80,West,270,0.0,-999.0,47,-99.99,,,0.00,Acu-Link.com,2013-02-23 18:28:00,
2013-02-23 12:43:00,49.5,29.1,29.79,West,270,1.7,-999.0,45,-99.99,,,0.00,Acu-Link.com,2013-02-23 18:43:00,
2013-02-23 12:59:00,50.4,29.9,29.77,West,270,3.2,-999.0,45,-99.99,,,0.00,Acu-Link.com,2013-02-23 18:59:00,
2013-02-23 13:14:00,51.1,29.4,29.76,West,270,0.0,-999.0,43,-99.99,,,0.00,Acu-Link.com,2013-02-23 19:14:00,
2013-02-23 13:29:00,51.6,28.7,29.74,West,270,0.0,-999.0,41,-99.99,,,0.00,Acu-Link.com,2013-02-23 19:29:00,
2013-02-23 13:44:00,52.5,30.1,29.73,West,270,0.0,-999.0,42,-99.99,,,0.00,Acu-Link.com,2013-02-23 19:44:00,
2013-02-23 13:59:00,53.6,29.9,29.73,West,270,0.0,-999.0,40,-99.99,,,0.00,Acu-Link.com,2013-02-23 19:59:00,
2013-02-23 14:15:00,54.5,30.7,29.72,West,270,0.0,-999.0,40,-99.99,,,0.00,Acu-Link.com,2013-02-23 20:15:00,
2013-02-23 14:30:00,55.4,30.2,29.71,West,270,0.0,-999.0,38,-99.99,,,0.00,Acu-Link.com,2013-02-23 20:30:00,
2013-02-23 14:45:00,56.8,30.8,29.70,West,270,0.0,-999.0,37,-99.99,,,0.00,Acu-Link.com,2013-02-23 20:45:00,
2013-02-23 15:01:00,58.6,31.7,29.69,West,270,0.0,-999.0,36,-99.99,,,0.00,Acu-Link.com,2013-02-23 21:01:00,
2013-02-23 15:16:00,65.3,32.2,29.70,West,270,0.0,-999.0,29,-99.99,,,0.00,Acu-Link.com,2013-02-23 21:16:00,
2013-02-23 15:31:00,69.3,32.9,29.69,West,270,0.0,-999.0,26,-99.99,,,0.00,Acu-Link.com,2013-02-23 21:31:00,
2013-02-23 15:47:00,69.1,32.8,29.68,West,270,0.0,-999.0,26,-99.99,,,0.00,Acu-Link.com,2013-02-23 21:47:00,
2013-02-23 16:02:00,69.4,32.1,29.68,West,270,0.0,-999.0,25,-99.99,,,0.00,Acu-Link.com,2013-02-23 22:02:00,
2013-02-23 16:17:00,67.5,32.3,29.68,West,270,0.0,-999.0,27,-99.99,,,0.00,Acu-Link.com,2013-02-23 22:17:00,
2013-02-23 16:32:00,66.6,31.6,29.67,West,270,0.0,-999.0,27,-99.99,,,0.00,Acu-Link.com,2013-02-23 22:32:00,
2013-02-23 16:47:00,63.0,31.1,29.67,West,270,0.0,-999.0,30,-99.99,,,0.00,Acu-Link.com,2013-02-23 22:47:00,
2013-02-23 17:03:00,60.8,31.5,29.66,West,270,0.0,-999.0,33,-99.99,,,0.00,Acu-Link.com,2013-02-23 23:03:00,
2013-02-23 17:18:00,59.7,31.3,29.65,West,270,0.0,-999.0,34,-99.99,,,0.00,Acu-Link.com,2013-02-23 23:18:00,
2013-02-23 17:33:00,58.3,30.8,29.65,West,270,0.0,-999.0,35,-99.99,,,0.00,Acu-Link.com,2013-02-23 23:33:00,
2013-02-23 17:49:00,57.2,30.5,29.66,West,270,0.0,-999.0,36,-99.99,,,0.00,Acu-Link.com,2013-02-23 23:49:00,
2013-02-23 18:04:00,56.1,30.8,29.66,West,270,0.0,-999.0,38,-99.99,,,0.00,Acu-Link.com,2013-02-24 00:04:00,
2013-02-23 18:19:00,55.4,31.5,29.66,West,270,0.0,-999.0,40,-99.99,,,0.00,Acu-Link.com,2013-02-24 00:19:00,
2013-02-23 18:34:00,54.3,31.7,29.67,West,270,0.0,-999.0,42,-99.99,,,0.00,Acu-Link.com,2013-02-24 00:34:00,
2013-02-23 18:49:00,53.2,30.7,29.67,West,270,0.0,-999.0,42,-99.99,,,0.00,Acu-Link.com,2013-02-24 00:49:00,
2013-02-23 19:05:00,52.3,30.5,29.68,West,270,0.0,-999.0,43,-99.99,,,0.00,Acu-Link.com,2013-02-24 01:05:00,
2013-02-23 19:20:00,51.4,30.2,29.68,West,270,0.0,-999.0,44,-99.99,,,0.00,Acu-Link.com,2013-02-24 01:20:00,
2013-02-23 19:35:00,50.7,30.7,29.69,West,270,0.0,-999.0,46,-99.99,,,0.00,Acu-Link.com,2013-02-24 01:35:00,
2013-02-23 19:51:00,50.0,30.6,29.69,West,270,0.0,-999.0,47,-99.99,,,0.00,Acu-Link.com,2013-02-24 01:51:00,
2013-02-23 20:06:00,49.3,30.5,29.68,West,270,0.0,-999.0,48,-99.99,,,0.00,Acu-Link.com,2013-02-24 02:06:00,
2013-02-23 20:21:00,48.6,30.8,29.68,West,270,0.0,-999.0,50,-99.99,,,0.00,Acu-Link.com,2013-02-24 02:21:00,
2013-02-23 20:37:00,48.2,30.4,29.69,West,270,0.0,-999.0,50,-99.99,,,0.00,Acu-Link.com,2013-02-24 02:37:00,
2013-02-23 20:52:00,47.7,30.5,29.69,West,270,0.0,-999.0,51,-99.99,,,0.00,Acu-Link.com,2013-02-24 02:52:00,
2013-02-23 21:07:00,47.1,30.4,29.68,West,270,0.0,-999.0,52,-99.99,,,0.00,Acu-Link.com,2013-02-24 03:07:00,
2013-02-23 21:23:00,46.9,30.7,29.67,West,270,0.0,-999.0,53,-99.99,,,0.00,Acu-Link.com,2013-02-24 03:23:00,
2013-02-23 21:38:00,46.9,30.2,29.67,West,270,0.0,-999.0,52,-99.99,,,0.00,Acu-Link.com,2013-02-24 03:38:00,
2013-02-23 21:53:00,46.6,30.9,29.67,West,270,0.0,-999.0,54,-99.99,,,0.00,Acu-Link.com,2013-02-24 03:53:00,
2013-02-23 22:09:00,46.6,30.9,29.68,West,270,0.0,-999.0,54,-99.99,,,0.00,Acu-Link.com,2013-02-24 04:09:00,
2013-02-23 22:24:00,46.2,30.5,29.67,West,270,0.0,-999.0,54,-99.99,,,0.00,Acu-Link.com,2013-02-24 04:24:00,
2013-02-23 22:39:00,45.9,30.2,29.68,West,270,0.0,-999.0,54,-99.99,,,0.00,Acu-Link.com,2013-02-24 04:39:00,
2013-02-23 22:54:00,45.3,30.5,29.67,West,270,0.0,-999.0,56,-99.99,,,0.00,Acu-Link.com,2013-02-24 04:54:00,
2013-02-23 23:10:00,44.6,30.7,29.67,West,270,0.0,-999.0,58,-99.99,,,0.00,Acu-Link.com,2013-02-24 05:10:00,
2013-02-23 23:25:00,43.9,30.9,29.66,West,270,0.0,-999.0,60,-99.99,,,0.00,Acu-Link.com,2013-02-24 05:25:00,
2013-02-23 23:40:00,43.3,30.8,29.66,West,270,0.0,-999.0,61,-99.99,,,0.00,Acu-Link.com,2013-02-24 05:40:00,
2013-02-23 23:56:00,42.8,29.9,29.66,West,270,0.0,-999.0,60,-99.99,,,0.00,Acu-Link.com,2013-02-24 05:56:00,